Time;durP1;ratioP1;P1;durP2;ratioP2;P2;SDS_P1;SDS_P2;PMS_P1;PMS_P2;Temp;Humidity;BMP_temperature;BMP_pressure;BME280_temperature;BME280_humidity;BME280_pressure;Samples;Min_cycle;Max_cycle;Signal;HPM_P1;HPM_P2
2023/05/08 00:02:04;;;;;;;2.83;2.53;;;18.10;99.90;;;;;;5073478;27;20472;-63
2023/05/08 00:04:32;;;;;;;3.00;2.80;;;18.10;99.90;;;;;;5085246;27;20574;-62
2023/05/08 00:06:59;;;;;;;5.47;2.80;;;18.20;99.90;;;;;;5069917;27;20493;-62
2023/05/08 00:09:26;;;;;;;4.13;2.80;;;18.10;99.90;;;;;;5083119;28;20494;-62
2023/05/08 00:11:52;;;;;;;3.97;3.10;;;18.10;99.90;;;;;;5070749;28;20525;-62
2023/05/08 00:14:19;;;;;;;3.53;3.20;;;18.00;99.90;;;;;;5074946;28;21024;-62
2023/05/08 00:16:46;;;;;;;2.97;2.77;;;18.00;99.90;;;;;;5070113;27;20465;-62
2023/05/08 00:19:13;;;;;;;4.70;3.90;;;18.00;99.90;;;;;;5072813;27;20495;-63
2023/05/08 00:21:41;;;;;;;3.43;3.13;;;18.00;99.90;;;;;;5095635;27;20482;-62
2023/05/08 00:24:08;;;;;;;3.63;3.33;;;18.10;99.90;;;;;;5073539;28;20775;-62
2023/05/08 00:26:35;;;;;;;4.07;3.70;;;18.10;99.90;;;;;;5067710;28;20469;-62
2023/05/08 00:29:02;;;;;;;3.90;3.60;;;18.40;99.90;;;;;;5070162;28;20478;-62
2023/05/08 00:31:28;;;;;;;4.40;2.93;;;18.10;99.90;;;;;;5080792;28;20474;-62
2023/05/08 00:33:55;;;;;;;3.93;3.37;;;18.10;99.90;;;;;;5077199;27;20488;-62
2023/05/08 00:36:22;;;;;;;3.40;3.10;;;18.10;99.90;;;;;;5089871;27;20506;-63
2023/05/08 00:38:50;;;;;;;3.93;3.07;;;18.00;99.90;;;;;;5071006;28;20786;-62
2023/05/08 00:41:17;;;;;;;3.10;2.90;;;18.00;99.90;;;;;;5078808;27;21354;-62
2023/05/08 00:43:44;;;;;;;2.70;2.50;;;18.00;99.90;;;;;;5085393;27;20486;-63
2023/05/08 00:46:11;;;;;;;3.03;2.70;;;18.00;99.90;;;;;;5078428;27;21167;-62
2023/05/08 00:48:39;;;;;;;3.40;2.47;;;18.00;99.90;;;;;;5079429;27;20915;-62
2023/05/08 00:51:07;;;;;;;2.53;2.33;;;18.00;99.90;;;;;;5080182;27;21028;-62
2023/05/08 00:53:38;;;;;;;3.10;2.80;;;18.00;99.90;;;;;;5079283;27;20870;-63
2023/05/08 00:56:11;;;;;;;2.60;2.40;;;18.10;99.90;;;;;;5075634;28;21014;-62
2023/05/08 00:58:38;;;;;;;3.10;2.80;;;18.10;99.90;;;;;;5075432;27;20899;-62
2023/05/08 01:01:05;;;;;;;3.17;2.97;;;18.10;99.90;;;;;;5076097;27;20488;-62
2023/05/08 01:03:35;;;;;;;3.67;3.30;;;18.20;99.90;;;;;;5094138;27;21077;-62
2023/05/08 01:06:02;;;;;;;3.30;3.00;;;18.20;99.90;;;;;;5071366;28;20972;-62
2023/05/08 01:08:30;;;;;;;3.37;3.07;;;18.20;99.90;;;;;;5072272;27;20477;-62
2023/05/08 01:11:06;;;;;;;3.27;2.97;;;18.20;99.90;;;;;;5080072;27;20483;-62
2023/05/08 01:13:45;;;;;;;3.13;2.83;;;18.10;99.90;;;;;;5092696;27;20488;-63
2023/05/08 01:16:15;;;;;;;4.77;3.27;;;18.10;99.90;;;;;;5079243;27;20503;-62
2023/05/08 01:18:50;;;;;;;2.97;2.67;;;18.10;99.90;;;;;;5096180;27;21035;-63
2023/05/08 01:21:27;;;;;;;7.70;2.90;;;18.20;99.90;;;;;;5085346;27;20476;-63
2023/05/08 01:24:27;;;;;;;5.33;2.77;;;18.10;99.90;;;;;;5095893;27;20490;-62
2023/05/08 01:27:18;;;;;;;3.70;3.40;;;18.10;99.90;;;;;;5068185;28;20867;-63
2023/05/08 01:30:23;;;;;;;3.37;3.07;;;18.10;99.90;;;;;;5060747;27;21491;-62
2023/05/08 01:32:57;;;;;;;3.83;3.50;;;18.10;99.90;;;;;;5047964;28;20478;-62
2023/05/08 01:35:29;;;;;;;5.10;3.80;;;18.10;99.90;;;;;;5093453;27;20472;-62
2023/05/08 01:38:03;;;;;;;4.30;3.27;;;18.20;99.90;;;;;;5076030;28;20485;-62
2023/05/08 01:40:37;;;;;;;5.20;3.60;;;18.10;99.90;;;;;;5086655;28;20701;-62
2023/05/08 01:43:12;;;;;;;5.67;2.67;;;18.10;99.90;;;;;;5087255;27;20496;-62
2023/05/08 01:45:44;;;;;;;3.50;3.20;;;18.10;99.90;;;;;;5064950;27;20981;-63
2023/05/08 01:48:16;;;;;;;2.97;2.77;;;18.00;99.90;;;;;;5102423;27;20969;-62
2023/05/08 01:50:47;;;;;;;4.83;4.43;;;17.90;99.90;;;;;;5091516;28;20485;-62
2023/05/08 01:53:22;;;;;;;4.23;3.93;;;18.00;99.90;;;;;;5078736;27;20843;-62
2023/05/08 01:55:53;;;;;;;3.70;3.40;;;17.90;99.90;;;;;;5074698;28;20486;-62
2023/05/08 01:58:23;;;;;;;4.53;4.13;;;17.80;99.90;;;;;;5080713;27;20496;-62
2023/05/08 02:00:50;;;;;;;4.23;3.83;;;17.80;99.90;;;;;;5091501;27;20496;-62
2023/05/08 02:03:22;;;;;;;4.33;3.50;;;17.80;99.90;;;;;;5089288;28;20493;-62
2023/05/08 02:05:50;;;;;;;3.60;3.30;;;17.70;99.90;;;;;;5090683;27;20816;-63
2023/05/08 02:08:19;;;;;;;4.07;3.70;;;17.70;99.90;;;;;;5094319;28;20489;-62
2023/05/08 02:10:48;;;;;;;5.30;4.40;;;17.70;99.90;;;;;;5081654;28;21011;-62
2023/05/08 02:13:17;;;;;;;4.37;3.97;;;17.80;99.90;;;;;;5073697;28;20494;-62
2023/05/08 02:15:47;;;;;;;4.00;3.70;;;17.80;99.90;;;;;;5092257;27;21009;-62
2023/05/08 02:18:15;;;;;;;4.50;4.10;;;17.80;99.90;;;;;;5075746;28;20485;-62
2023/05/08 02:20:44;;;;;;;4.20;3.80;;;17.80;99.90;;;;;;5077782;27;20491;-62
2023/05/08 02:23:12;;;;;;;4.97;4.57;;;17.80;99.90;;;;;;5094493;27;20463;-63
2023/05/08 02:25:40;;;;;;;3.80;3.50;;;17.70;99.90;;;;;;5074129;28;20749;-62
2023/05/08 02:28:07;;;;;;;4.43;4.10;;;17.70;99.90;;;;;;5078572;28;20478;-63
2023/05/08 02:30:35;;;;;;;3.77;3.47;;;17.70;99.90;;;;;;5065588;28;21108;-62
2023/05/08 02:33:03;;;;;;;4.10;3.80;;;17.70;99.90;;;;;;5087388;27;20478;-63
2023/05/08 02:35:31;;;;;;;4.00;3.60;;;17.60;99.90;;;;;;5054781;27;20476;-62
2023/05/08 02:38:02;;;;;;;4.03;3.63;;;17.60;99.90;;;;;;5093008;27;20487;-62
2023/05/08 02:40:30;;;;;;;3.90;3.60;;;17.50;99.90;;;;;;5082472;28;20478;-62
2023/05/08 02:42:57;;;;;;;4.30;3.97;;;17.60;99.90;;;;;;5073041;28;20504;-62
2023/05/08 02:45:28;;;;;;;4.40;4.00;;;17.50;99.90;;;;;;5083553;28;20890;-63
2023/05/08 02:48:07;;;;;;;6.20;3.87;;;17.60;99.90;;;;;;5079705;27;20477;-62
2023/05/08 02:50:39;;;;;;;6.43;4.50;;;17.60;99.90;;;;;;5078989;28;20470;-63
2023/05/08 02:53:15;;;;;;;4.10;3.80;;;17.70;99.90;;;;;;5084541;28;20484;-63
2023/05/08 02:55:49;;;;;;;5.13;3.93;;;17.70;99.90;;;;;;5084218;27;20472;-62
2023/05/08 02:58:20;;;;;;;5.10;4.40;;;17.70;99.90;;;;;;5066663;28;20479;-62
2023/05/08 03:00:49;;;;;;;7.13;3.93;;;17.80;99.90;;;;;;5072103;28;20486;-62
2023/05/08 03:03:22;;;;;;;3.70;3.40;;;17.80;99.90;;;;;;5079620;28;20469;-63
2023/05/08 03:05:53;;;;;;;4.13;3.70;;;17.80;99.90;;;;;;5065542;27;20549;-62
2023/05/08 03:08:27;;;;;;;5.47;4.43;;;17.80;99.90;;;;;;5085252;27;20479;-62
2023/05/08 03:10:57;;;;;;;6.07;4.53;;;17.80;99.90;;;;;;5095451;27;20482;-62
2023/05/08 03:13:27;;;;;;;8.10;3.90;;;17.80;99.90;;;;;;5079431;27;20865;-62
2023/05/08 03:15:57;;;;;;;4.50;4.10;;;17.90;99.90;;;;;;5058057;28;20489;-62
2023/05/08 03:18:28;;;;;;;4.77;4.40;;;17.90;99.90;;;;;;5074645;28;20478;-62
2023/05/08 03:20:57;;;;;;;5.57;3.90;;;17.90;99.90;;;;;;5064055;28;21242;-63
2023/05/08 03:23:29;;;;;;;5.10;4.20;;;17.90;99.90;;;;;;5084613;27;20482;-62
2023/05/08 03:25:58;;;;;;;5.53;4.37;;;17.90;99.90;;;;;;5077360;28;20486;-62
2023/05/08 03:28:27;;;;;;;4.83;4.30;;;18.00;99.90;;;;;;5069582;28;20474;-62
2023/05/08 03:30:55;;;;;;;4.83;4.43;;;17.90;99.90;;;;;;5092811;28;20875;-62
2023/05/08 03:33:24;;;;;;;6.00;5.60;;;17.90;99.90;;;;;;5080530;28;20505;-62
2023/05/08 03:35:53;;;;;;;4.23;3.83;;;17.80;99.90;;;;;;5067568;28;20474;-62
2023/05/08 03:38:21;;;;;;;4.23;3.93;;;17.90;99.90;;;;;;5075280;28;21251;-62
2023/05/08 03:40:49;;;;;;;3.97;3.63;;;17.70;99.90;;;;;;5078740;28;21024;-63
2023/05/08 03:43:17;;;;;;;4.73;4.33;;;17.70;99.90;;;;;;5100426;27;20478;-62
2023/05/08 03:45:45;;;;;;;4.97;4.47;;;17.70;99.90;;;;;;5072808;28;20489;-62
2023/05/08 03:48:14;;;;;;;5.57;3.60;;;17.70;99.90;;;;;;5093043;27;20557;-62
2023/05/08 03:50:41;;;;;;;6.10;4.33;;;17.70;99.90;;;;;;5077711;27;20485;-62
2023/05/08 03:53:08;;;;;;;4.60;4.20;;;17.60;99.90;;;;;;5084135;27;20845;-62
2023/05/08 03:55:36;;;;;;;4.43;4.03;;;17.50;99.90;;;;;;5077713;28;20934;-62
2023/05/08 03:58:13;;;;;;;4.07;3.77;;;17.50;99.90;;;;;;5102732;27;20542;-61
2023/05/08 04:01:00;;;;;;;5.10;4.60;;;17.50;99.90;;;;;;5064209;27;20724;-62
2023/05/08 04:03:52;;;;;;;4.33;4.03;;;17.60;99.90;;;;;;5088908;27;20475;-62
2023/05/08 04:06:29;;;;;;;4.60;4.20;;;17.70;99.90;;;;;;5081055;27;20509;-62
2023/05/08 04:09:04;;;;;;;4.03;3.73;;;17.70;99.90;;;;;;5098500;28;20539;-61
2023/05/08 04:11:35;;;;;;;5.80;5.30;;;17.80;99.90;;;;;;5068254;28;20458;-62
2023/05/08 04:14:05;;;;;;;4.90;4.50;;;17.70;99.90;;;;;;5066472;28;20978;-61
2023/05/08 04:16:36;;;;;;;5.50;5.00;;;17.70;99.90;;;;;;5076772;28;20467;-62
2023/05/08 04:19:09;;;;;;;5.37;4.87;;;17.70;99.90;;;;;;5063546;28;20973;-62
2023/05/08 04:21:39;;;;;;;5.60;5.03;;;17.60;99.90;;;;;;5096625;27;20543;-61
2023/05/08 04:24:08;;;;;;;8.17;5.27;;;17.50;99.90;;;;;;5088094;27;20728;-62
2023/05/08 04:26:35;;;;;;;6.60;5.03;;;17.40;99.90;;;;;;5091380;27;20530;-63
2023/05/08 04:29:05;;;;;;;7.27;5.67;;;17.40;99.90;;;;;;5072639;28;21053;-62
2023/05/08 04:31:32;;;;;;;5.70;5.03;;;17.40;99.90;;;;;;5074759;28;20470;-62
2023/05/08 04:34:00;;;;;;;7.67;6.80;;;17.40;99.90;;;;;;5074609;28;20482;-62
2023/05/08 04:36:28;;;;;;;5.93;5.37;;;17.40;99.90;;;;;;5085611;27;20512;-63
2023/05/08 04:38:55;;;;;;;5.63;5.13;;;17.40;99.90;;;;;;5073124;28;20482;-63
2023/05/08 04:41:21;;;;;;;7.57;5.83;;;17.40;99.90;;;;;;5067946;28;20486;-63
2023/05/08 04:43:48;;;;;;;6.47;5.87;;;17.40;99.90;;;;;;5094004;27;20483;-61
2023/05/08 04:46:16;;;;;;;6.10;5.60;;;17.40;99.90;;;;;;5103652;27;20474;-63
2023/05/08 04:48:43;;;;;;;6.63;5.73;;;17.40;99.90;;;;;;5087409;27;20471;-62
2023/05/08 04:51:10;;;;;;;7.00;6.10;;;17.40;99.90;;;;;;5085177;27;20974;-63
2023/05/08 04:53:37;;;;;;;5.50;5.00;;;17.40;99.90;;;;;;5083124;27;20977;-62
2023/05/08 04:56:05;;;;;;;6.40;4.93;;;17.40;99.90;;;;;;5100985;27;21001;-62
2023/05/08 04:58:32;;;;;;;5.10;4.70;;;17.40;99.90;;;;;;5068624;28;20481;-62
2023/05/08 05:01:02;;;;;;;7.70;6.00;;;17.40;99.90;;;;;;5066758;28;20485;-62
2023/05/08 05:03:30;;;;;;;8.03;5.10;;;17.40;99.90;;;;;;5082763;28;20817;-62
2023/05/08 05:06:00;;;;;;;5.60;5.10;;;17.40;99.90;;;;;;5083434;28;20492;-62
2023/05/08 05:08:27;;;;;;;5.90;5.40;;;17.40;99.90;;;;;;5086268;27;20906;-62
2023/05/08 05:10:54;;;;;;;8.27;6.17;;;17.30;99.90;;;;;;5086347;27;20493;-62
2023/05/08 05:13:20;;;;;;;6.53;5.50;;;17.40;99.90;;;;;;5082938;28;20493;-62
2023/05/08 05:15:50;;;;;;;5.83;5.07;;;17.40;99.90;;;;;;5076111;28;20479;-63
2023/05/08 05:18:16;;;;;;;6.00;5.50;;;17.40;99.90;;;;;;5072504;27;21016;-62
2023/05/08 05:20:45;;;;;;;6.37;5.77;;;17.50;99.90;;;;;;5085483;27;20971;-62
2023/05/08 05:23:11;;;;;;;6.70;6.10;;;17.40;99.90;;;;;;5077014;28;21426;-62
2023/05/08 05:25:38;;;;;;;14.10;6.10;;;17.60;99.90;;;;;;5075687;28;21016;-62
2023/05/08 05:28:06;;;;;;;7.00;6.03;;;17.60;99.90;;;;;;5066616;27;20492;-62
2023/05/08 05:30:32;;;;;;;6.47;5.73;;;17.60;99.90;;;;;;5075120;27;20474;-62
2023/05/08 05:32:59;;;;;;;6.80;6.20;;;17.60;99.90;;;;;;5081943;27;21374;-63
2023/05/08 05:35:26;;;;;;;6.63;6.03;;;17.60;99.90;;;;;;5089826;27;20481;-62
2023/05/08 05:37:54;;;;;;;7.90;6.77;;;17.60;99.90;;;;;;5098571;27;20497;-62
2023/05/08 05:40:21;;;;;;;7.70;7.10;;;17.50;99.90;;;;;;5071608;28;20735;-62
2023/05/08 05:42:51;;;;;;;7.50;6.80;;;17.50;99.90;;;;;;5079295;28;20489;-62
2023/05/08 05:45:18;;;;;;;8.93;7.50;;;17.50;99.90;;;;;;5073016;27;20489;-62
2023/05/08 05:47:48;;;;;;;9.30;6.70;;;17.50;99.90;;;;;;5103375;27;20473;-61
2023/05/08 05:50:15;;;;;;;8.40;7.70;;;17.50;99.90;;;;;;5080645;28;20478;-62
2023/05/08 05:52:42;;;;;;;7.10;6.33;;;17.50;99.90;;;;;;5075561;27;20487;-62
2023/05/08 05:55:11;;;;;;;22.03;7.17;;;17.50;99.90;;;;;;5094309;27;20675;-62
2023/05/08 05:57:37;;;;;;;8.30;6.87;;;17.60;99.90;;;;;;5083787;27;20686;-62
2023/05/08 06:00:06;;;;;;;7.63;7.03;;;17.70;99.90;;;;;;5080123;28;20832;-62
2023/05/08 06:02:35;;;;;;;7.97;7.17;;;17.70;99.90;;;;;;5072269;28;20493;-62
2023/05/08 06:05:02;;;;;;;7.87;7.00;;;17.70;99.90;;;;;;5089377;28;20465;-62
2023/05/08 06:07:29;;;;;;;7.87;7.07;;;17.60;99.90;;;;;;5094889;27;20514;-62
2023/05/08 06:09:56;;;;;;;10.57;7.27;;;17.60;99.90;;;;;;5077717;28;20852;-62
2023/05/08 06:12:24;;;;;;;7.43;6.60;;;17.60;99.90;;;;;;5062207;28;20966;-62
2023/05/08 06:14:51;;;;;;;16.53;8.17;;;17.60;99.90;;;;;;5112638;27;21022;-62
2023/05/08 06:17:18;;;;;;;7.20;6.50;;;17.60;99.90;;;;;;5087620;27;20468;-62
2023/05/08 06:19:49;;;;;;;9.13;8.20;;;17.70;99.90;;;;;;5094949;27;21246;-62
2023/05/08 06:22:16;;;;;;;13.30;8.30;;;17.70;99.90;;;;;;5060343;27;20821;-62
2023/05/08 06:24:43;;;;;;;14.37;8.03;;;17.70;99.90;;;;;;5057142;27;20975;-62
2023/05/08 06:27:10;;;;;;;16.87;8.83;;;17.70;99.90;;;;;;5090744;27;20492;-62
2023/05/08 06:29:38;;;;;;;15.57;9.07;;;17.60;99.90;;;;;;5075652;27;20488;-62
2023/05/08 06:32:05;;;;;;;17.83;9.43;;;17.60;99.90;;;;;;5099221;27;21069;-62
2023/05/08 06:34:32;;;;;;;17.23;9.00;;;17.50;99.90;;;;;;5076084;27;21002;-62
2023/05/08 06:36:59;;;;;;;20.97;11.27;;;17.70;99.90;;;;;;5076605;28;20512;-62
2023/05/08 06:39:26;;;;;;;16.13;10.47;;;17.70;99.90;;;;;;5098474;28;20469;-62
2023/05/08 06:41:52;;;;;;;17.37;10.50;;;17.80;99.90;;;;;;5072250;28;20613;-62
2023/05/08 06:44:19;;;;;;;19.77;10.73;;;17.90;99.90;;;;;;5111162;27;20473;-62
2023/05/08 06:46:48;;;;;;;21.30;10.37;;;17.90;99.90;;;;;;5081857;27;20486;-62
2023/05/08 06:49:15;;;;;;;19.37;10.63;;;18.00;99.90;;;;;;5100297;27;20560;-62
2023/05/08 06:51:41;;;;;;;17.67;13.07;;;18.00;99.90;;;;;;5093803;28;20854;-62
2023/05/08 06:54:08;;;;;;;17.70;11.57;;;18.00;99.90;;;;;;5087670;28;20484;-63
2023/05/08 06:56:35;;;;;;;18.20;11.20;;;18.00;99.90;;;;;;5067347;27;20505;-63
2023/05/08 06:59:02;;;;;;;22.70;12.67;;;17.90;99.90;;;;;;5094946;27;20488;-62
2023/05/08 07:01:29;;;;;;;21.27;10.87;;;18.00;99.90;;;;;;5104577;27;20477;-62
2023/05/08 07:04:00;;;;;;;19.00;11.03;;;18.00;99.90;;;;;;5091111;27;20862;-62
2023/05/08 07:06:27;;;;;;;19.57;10.13;;;18.10;99.90;;;;;;5096072;27;20837;-62
2023/05/08 07:08:54;;;;;;;21.93;11.43;;;18.10;99.90;;;;;;5079242;28;20481;-63
2023/05/08 07:11:21;;;;;;;22.97;13.13;;;;;;;;;;5078722;28;20802;-63
2023/05/08 07:13:47;;;;;;;20.50;11.70;;;18.20;99.90;;;;;;5073128;28;20486;-62
2023/05/08 07:16:15;;;;;;;21.97;11.77;;;18.20;99.90;;;;;;5068513;28;20731;-62
2023/05/08 07:18:43;;;;;;;20.40;12.50;;;18.20;99.90;;;;;;5071647;28;20544;-62
2023/05/08 07:21:11;;;;;;;29.03;12.60;;;18.20;99.90;;;;;;5082298;28;20486;-62
2023/05/08 07:23:38;;;;;;;25.83;13.27;;;18.20;99.90;;;;;;5079450;27;20906;-62
2023/05/08 07:26:04;;;;;;;18.63;11.50;;;18.20;99.90;;;;;;5112764;27;20481;-63
2023/05/08 07:28:31;;;;;;;20.80;11.70;;;18.20;99.90;;;;;;5080259;27;20481;-63
2023/05/08 07:30:58;;;;;;;26.73;13.07;;;18.20;99.90;;;;;;5082029;28;20478;-63
2023/05/08 07:33:25;;;;;;;28.57;13.80;;;18.20;99.90;;;;;;5082646;28;20477;-63
2023/05/08 07:35:52;;;;;;;22.57;13.10;;;18.10;99.90;;;;;;5089512;27;20594;-62
2023/05/08 07:38:20;;;;;;;24.43;14.13;;;18.20;99.90;;;;;;5101598;27;20837;-62
2023/05/08 07:40:47;;;;;;;24.17;13.40;;;18.20;99.90;;;;;;5074691;27;20488;-63
2023/05/08 07:43:15;;;;;;;25.67;13.97;;;18.20;99.90;;;;;;5082888;27;20498;-62
2023/05/08 07:45:42;;;;;;;21.47;13.33;;;18.30;99.90;;;;;;5076620;28;20492;-63
2023/05/08 07:48:09;;;;;;;22.83;13.90;;;18.30;99.90;;;;;;5076699;28;20531;-62
2023/05/08 07:50:36;;;;;;;24.73;14.13;;;18.20;99.90;;;;;;5079779;28;20798;-62
2023/05/08 07:53:03;;;;;;;22.00;14.57;;;18.30;99.90;;;;;;5096509;27;20880;-63
2023/05/08 07:55:31;;;;;;;27.07;15.60;;;18.30;99.90;;;;;;5080222;27;21073;-62
2023/05/08 07:57:58;;;;;;;22.37;15.87;;;18.40;99.90;;;;;;5068168;27;20480;-63
2023/05/08 08:00:26;;;;;;;35.90;20.13;;;18.40;99.90;;;;;;5086613;27;20802;-63
2023/05/08 08:02:53;;;;;;;31.33;16.93;;;18.40;99.90;;;;;;5085036;27;20499;-62
2023/05/08 08:05:20;;;;;;;25.10;16.60;;;18.40;99.90;;;;;;5076457;28;21002;-62
2023/05/08 08:07:47;;;;;;;31.33;15.20;;;18.50;99.90;;;;;;5098760;27;20651;-64
2023/05/08 08:10:14;;;;;;;28.80;15.93;;;18.50;99.90;;;;;;5072005;27;20574;-61
2023/05/08 08:12:42;;;;;;;24.57;15.53;;;18.50;99.90;;;;;;5102697;27;20487;-62
2023/05/08 08:15:09;;;;;;;23.23;13.83;;;18.50;99.90;;;;;;5086326;28;20484;-61
2023/05/08 08:17:36;;;;;;;24.83;14.40;;;18.50;99.90;;;;;;5069148;28;20478;-62
2023/05/08 08:20:03;;;;;;;26.60;15.70;;;18.50;99.90;;;;;;5068646;28;20631;-61
2023/05/08 08:22:30;;;;;;;26.77;14.93;;;18.50;99.90;;;;;;5075231;28;20474;-62
2023/05/08 08:24:57;;;;;;;25.03;15.10;;;18.50;99.90;;;;;;5077818;28;20478;-62
2023/05/08 08:27:24;;;;;;;25.20;13.93;;;18.60;99.90;;;;;;5102802;27;20479;-62
2023/05/08 08:29:52;;;;;;;26.60;14.23;;;18.50;99.90;;;;;;5080371;27;20481;-62
2023/05/08 08:32:19;;;;;;;31.37;15.57;;;18.50;99.90;;;;;;5092576;27;20484;-62
2023/05/08 08:34:46;;;;;;;30.77;15.33;;;18.50;99.90;;;;;;5075331;28;20482;-62
2023/05/08 08:37:12;;;;;;;28.13;15.70;;;18.60;99.90;;;;;;5072861;27;20470;-62
2023/05/08 08:39:39;;;;;;;30.40;14.97;;;18.60;99.90;;;;;;5097602;27;25022;-62
2023/05/08 08:42:06;;;;;;;21.40;14.77;;;18.60;99.90;;;;;;5069747;27;20507;-63
2023/05/08 08:44:32;;;;;;;31.07;16.60;;;18.60;99.90;;;;;;5097120;27;20507;-63
2023/05/08 08:47:02;;;;;;;23.00;15.10;;;18.60;99.90;;;;;;5065100;28;20483;-63
2023/05/08 08:49:31;;;;;;;26.57;15.33;;;18.60;99.90;;;;;;5095446;27;20465;-63
2023/05/08 08:52:02;;;;;;;27.70;15.87;;;18.50;99.90;;;;;;5087860;28;21138;-63
2023/05/08 08:54:33;;;;;;;24.33;14.60;;;18.50;99.90;;;;;;5097729;27;20465;-63
2023/05/08 08:57:05;;;;;;;27.37;16.23;;;18.50;99.90;;;;;;5067059;28;20521;-63
2023/05/08 08:59:33;;;;;;;28.60;15.60;;;18.60;99.90;;;;;;5094684;27;20474;-63
2023/05/08 09:02:07;;;;;;;31.30;15.23;;;18.60;99.90;;;;;;5069532;28;20489;-63
2023/05/08 09:04:34;;;;;;;23.43;14.50;;;18.70;99.90;;;;;;5070944;28;20482;-63
2023/05/08 09:07:04;;;;;;;30.20;15.40;;;18.80;99.90;;;;;;5069791;28;20668;-62
2023/05/08 09:09:32;;;;;;;27.50;14.63;;;18.70;99.90;;;;;;5078861;28;20606;-62
2023/05/08 09:11:59;;;;;;;26.00;15.20;;;18.70;99.90;;;;;;5067026;28;21334;-61
2023/05/08 09:14:26;;;;;;;30.40;15.80;;;18.80;99.90;;;;;;5089679;27;20473;-62
2023/05/08 09:16:53;;;;;;;21.60;14.80;;;18.90;99.90;;;;;;5064440;28;20825;-62
2023/05/08 09:19:23;;;;;;;19.27;13.00;;;18.90;99.90;;;;;;5086487;27;20517;-62
2023/05/08 09:21:50;;;;;;;23.30;13.17;;;18.90;99.90;;;;;;5077418;27;20475;-63
2023/05/08 09:24:17;;;;;;;22.60;14.57;;;19.00;99.90;;;;;;5084649;28;20955;-62
2023/05/08 09:26:44;;;;;;;30.70;14.30;;;19.00;99.90;;;;;;5097323;27;20485;-63
2023/05/08 09:29:12;;;;;;;23.50;14.03;;;19.00;99.90;;;;;;5092516;27;20481;-63
2023/05/08 09:31:41;;;;;;;19.10;13.23;;;19.00;99.90;;;;;;5082408;28;20482;-63
2023/05/08 09:34:08;;;;;;;17.20;11.57;;;19.00;99.90;;;;;;5084420;27;20750;-63
2023/05/08 09:36:38;;;;;;;23.07;13.93;;;19.00;99.90;;;;;;5067540;28;20500;-63
2023/05/08 09:39:11;;;;;;;20.30;12.30;;;19.10;99.90;;;;;;5092116;27;20485;-63
2023/05/08 09:41:38;;;;;;;20.83;14.40;;;19.10;99.90;;;;;;5079847;27;21435;-64
2023/05/08 09:44:06;;;;;;;22.50;14.73;;;19.20;99.90;;;;;;5077764;27;20481;-63
2023/05/08 09:46:34;;;;;;;21.93;13.27;;;19.20;99.90;;;;;;5088801;27;20482;-62
2023/05/08 09:49:03;;;;;;;18.30;12.30;;;19.20;99.90;;;;;;5081287;28;21046;-63
2023/05/08 09:51:33;;;;;;;22.27;14.20;;;19.10;99.90;;;;;;5086063;28;20908;-63
2023/05/08 09:54:05;;;;;;;23.77;14.43;;;19.10;99.90;;;;;;5071611;27;20550;-63
2023/05/08 09:56:33;;;;;;;17.07;13.00;;;19.10;99.90;;;;;;5090153;27;20493;-63
2023/05/08 09:59:00;;;;;;;18.13;12.23;;;19.10;99.90;;;;;;5085280;27;21132;-63
2023/05/08 10:01:31;;;;;;;17.33;12.27;;;19.10;99.90;;;;;;5071892;28;20747;-63
2023/05/08 10:03:58;;;;;;;19.10;13.30;;;19.20;99.90;;;;;;5073572;28;20851;-63
2023/05/08 10:06:27;;;;;;;18.30;12.23;;;19.20;99.90;;;;;;5070997;28;20476;-62
2023/05/08 10:09:14;;;;;;;14.73;10.93;;;19.20;99.90;;;;;;5068845;27;20472;-62
2023/05/08 10:11:50;;;;;;;19.37;12.77;;;19.00;99.90;;;;;;5106907;27;20868;-62
2023/05/08 10:14:17;;;;;;;13.07;9.17;;;19.00;99.90;;;;;;5083232;27;20505;-62
2023/05/08 10:16:47;;;;;;;13.47;10.27;;;19.00;99.90;;;;;;5086324;28;20478;-62
2023/05/08 10:19:15;;;;;;;12.87;10.23;;;19.00;99.90;;;;;;5074416;28;20480;-62
2023/05/08 10:21:46;;;;;;;14.37;11.70;;;19.10;99.90;;;;;;5088745;28;20478;-62
2023/05/08 10:24:18;;;;;;;13.80;10.00;;;19.10;99.90;;;;;;5082832;28;20509;-63
2023/05/08 10:26:56;;;;;;;11.67;9.30;;;19.30;99.90;;;;;;5095897;27;20485;-62
2023/05/08 10:29:34;;;;;;;14.50;8.50;;;19.40;99.90;;;;;;5067174;27;20482;-62
2023/05/08 10:32:02;;;;;;;10.77;8.27;;;19.40;99.90;;;;;;5086193;27;20482;-62
2023/05/08 10:34:32;;;;;;;11.03;9.10;;;19.50;99.90;;;;;;5069146;28;20475;-62
2023/05/08 10:36:59;;;;;;;8.47;7.20;;;19.60;99.90;;;;;;5057467;28;20484;-62
2023/05/08 10:39:30;;;;;;;10.53;8.00;;;19.70;99.90;;;;;;5069334;28;20491;-61
2023/05/08 10:41:57;;;;;;;10.53;9.37;;;19.90;99.90;;;;;;5076722;27;20497;-62
2023/05/08 10:44:26;;;;;;;10.10;7.93;;;19.90;99.90;;;;;;5096263;27;20482;-62
2023/05/08 10:46:59;;;;;;;6.47;5.77;;;20.00;99.90;;;;;;5088005;27;21075;-62
2023/05/08 10:49:34;;;;;;;14.00;6.30;;;20.10;99.90;;;;;;5096360;27;20489;-62
2023/05/08 10:52:16;;;;;;;8.80;5.80;;;20.30;99.90;;;;;;5062025;28;20500;-62
2023/05/08 10:55:16;;;;;;;7.60;6.50;;;20.40;99.90;;;;;;5073472;28;20470;-62
2023/05/08 10:58:02;;;;;;;9.10;7.20;;;20.70;99.90;;;;;;5070858;28;20490;-62
2023/05/08 11:00:32;;;;;;;6.77;6.10;;;20.70;99.90;;;;;;5055616;28;20481;-63
2023/05/08 11:03:05;;;;;;;7.60;6.77;;;20.90;99.90;;;;;;5085155;28;20501;-62
2023/05/08 11:05:46;;;;;;;14.47;6.77;;;21.20;99.90;;;;;;5063613;27;20542;-63
2023/05/08 11:08:15;;;;;;;8.63;7.43;;;21.40;99.90;;;;;;5085244;27;21252;-63
2023/05/08 11:10:44;;;;;;;8.63;7.73;;;21.40;99.90;;;;;;5091682;27;20478;-63
2023/05/08 11:13:12;;;;;;;11.07;5.67;;;21.30;99.90;;;;;;5074429;28;20471;-63
2023/05/08 11:15:40;;;;;;;9.20;7.23;;;21.40;99.90;;;;;;5068980;28;20492;-63
2023/05/08 11:18:10;;;;;;;7.67;6.77;;;21.40;99.90;;;;;;5066215;28;20510;-63
2023/05/08 11:20:41;;;;;;;6.97;5.80;;;21.40;99.90;;;;;;5080161;27;20481;-63
2023/05/08 11:23:23;;;;;;;9.57;6.57;;;21.50;99.90;;;;;;5053275;27;20563;-63
2023/05/08 11:26:00;;;;;;;7.33;6.50;;;21.60;99.90;;;;;;5077285;28;20463;-63
2023/05/08 11:28:27;;;;;;;8.80;7.17;;;21.70;99.90;;;;;;5066837;28;20525;-63
2023/05/08 11:30:55;;;;;;;8.07;7.00;;;21.80;99.90;;;;;;5075163;28;21276;-63
2023/05/08 11:33:23;;;;;;;8.40;7.33;;;21.90;99.90;;;;;;5090002;28;20964;-63
2023/05/08 11:35:52;;;;;;;8.63;6.87;;;22.00;99.90;;;;;;5092558;28;20469;-63
2023/05/08 11:38:24;;;;;;;7.13;6.40;;;22.00;99.90;;;;;;5084655;28;20485;-63
2023/05/08 11:41:00;;;;;;;8.07;6.17;;;22.20;99.90;;;;;;5075705;28;20478;-63
2023/05/08 11:43:43;;;;;;;7.03;6.30;;;;;;;;;;5063738;28;20466;-63
2023/05/08 11:46:15;;;;;;;7.23;5.60;;;22.50;99.90;;;;;;5050762;28;20474;-63
2023/05/08 11:48:42;;;;;;;7.63;6.53;;;22.60;99.90;;;;;;5069926;28;20577;-63
2023/05/08 11:51:09;;;;;;;6.80;5.60;;;22.70;99.90;;;;;;5067024;28;20456;-62
2023/05/08 11:53:37;;;;;;;6.30;5.70;;;22.70;99.90;;;;;;5084232;27;21018;-63
2023/05/08 11:56:06;;;;;;;7.63;6.03;;;22.80;99.90;;;;;;5094336;28;20486;-63
2023/05/08 11:58:35;;;;;;;6.07;5.27;;;22.80;99.90;;;;;;5077063;28;20797;-63
2023/05/08 12:01:02;;;;;;;8.73;7.93;;;22.70;99.90;;;;;;5077797;28;20482;-62
2023/05/08 12:03:29;;;;;;;7.10;6.50;;;22.90;99.90;;;;;;5069881;28;20475;-63
2023/05/08 12:05:57;;;;;;;7.33;5.83;;;22.70;98.80;;;;;;5066694;27;20794;-63
2023/05/08 12:08:24;;;;;;;5.97;5.47;;;22.60;99.90;;;;;;5091822;27;20486;-63
2023/05/08 12:10:52;;;;;;;6.40;5.80;;;22.80;99.90;;;;;;5057888;28;20520;-63
2023/05/08 12:13:21;;;;;;;6.60;6.00;;;22.80;99.30;;;;;;5091862;27;20499;-62
2023/05/08 12:15:49;;;;;;;8.23;7.00;;;23.00;99.90;;;;;;5098375;27;20472;-63
2023/05/08 12:18:16;;;;;;;6.03;5.43;;;23.10;99.90;;;;;;5073369;27;20495;-63
2023/05/08 12:20:43;;;;;;;6.80;6.20;;;23.60;99.90;;;;;;5072239;27;20482;-63
2023/05/08 12:23:10;;;;;;;5.93;5.30;;;23.60;99.90;;;;;;5084945;28;20448;-63
2023/05/08 12:25:38;;;;;;;7.23;6.53;;;23.90;99.90;;;;;;5088838;27;20491;-63
2023/05/08 12:28:06;;;;;;;7.70;6.87;;;23.90;96.70;;;;;;5085472;27;20455;-63
2023/05/08 12:30:34;;;;;;;13.13;9.57;;;23.90;97.40;;;;;;5067336;27;21103;-63
2023/05/08 12:33:03;;;;;;;11.57;9.63;;;23.60;98.30;;;;;;5093936;27;20481;-63
2023/05/08 12:35:30;;;;;;;12.23;9.47;;;23.20;97.60;;;;;;5068012;27;20741;-63
2023/05/08 12:38:02;;;;;;;10.40;9.37;;;22.90;97.60;;;;;;5077023;27;20486;-62
2023/05/08 12:40:30;;;;;;;8.63;7.80;;;22.90;98.40;;;;;;5061158;28;20501;-63
2023/05/08 12:42:57;;;;;;;10.90;9.80;;;22.60;98.70;;;;;;5110377;27;20479;-63
2023/05/08 12:45:25;;;;;;;11.73;9.60;;;22.30;98.40;;;;;;5104654;27;20703;-63
2023/05/08 12:47:59;;;;;;;10.87;9.70;;;22.30;98.30;;;;;;5080493;27;20498;-63
2023/05/08 12:50:26;;;;;;;7.73;6.20;;;22.10;99.10;;;;;;5090384;27;20952;-63
2023/05/08 12:52:53;;;;;;;7.80;6.30;;;21.90;98.80;;;;;;5070139;28;20723;-63